Main page
METAR-TAF:

Airports :

Frankfurt, Germany

Frankfurt Airport

latitude: 50-03N, longitude: 008-36E, elevation: 111 m

Current weather observation

The report was made 33 minutes ago, at 00:50 UTC
Wind 3 kt from the East
Temperature 17°C
Humidity 82%
Pressure 1016 hPa
Visibility 10 km or more
Shallow fog

METAR: EDDF 260050Z 08003KT 9999 MIFG NSC 17/14 Q1016 NOSIG

Time: 03:23 (01:23 UTC)

Forecast

The report was made 2 hours and 23 minutes ago, at 23:00 UTC
Forecast valid from 26 at 00 UTC to 27 at 06 UTC
Wind 5 kt from the Northeast
Visibility 10 km or more
no clouds below 1500 m and no cumulonimbus
Becoming
from 26 at 10 UTC to 26 at 12 UTC
Wind 5 kt from the South/Southwest
Becoming
from 26 at 17 UTC to 26 at 19 UTC
Wind 4 kt from the Northeast

TAF: EDDF 252300Z 2600/2706 05005KT CAVOK BECMG 2610/2612 21005KT BECMG 2617/2619 04004KT

METAR-TAF

Weather observations and forecasts of more than 4000 airports (METAR and TAF reports).

The available stations are represented by yellow and red dots on the map.

Hover mouse over dot to see the name of the station.

Then click to see weather observations and forecasts.

To change the map : click on the green buttons with a black cross to zoom in, on the green button with a dash to zoom out, or on the green arrows for adjacent maps.


METAR-TAF: